Time;durP1;ratioP1;P1;durP2;ratioP2;P2;SDS_P1;SDS_P2;PMS_P1;PMS_P2;Temp;Humidity;BMP_temperature;BMP_pressure;BME280_temperature;BME280_humidity;BME280_pressure;Samples;Min_cycle;Max_cycle;Signal;HPM_P1;HPM_P2
2022/08/30 00:02:29;;;;;;;5.50;4.88;;;16.30;99.90;;;-141.84;74.35;19950.00;5049955;28;20287;-62
2022/08/30 00:05:00;;;;;;;5.35;4.85;;;16.40;99.90;;;-141.84;73.57;20013.00;5050180;28;20225;-64
2022/08/30 00:07:29;;;;;;;6.65;5.32;;;16.40;99.90;;;-141.84;73.64;19980.50;5054290;28;20228;-63
2022/08/30 00:09:57;;;;;;;6.45;5.18;;;16.50;99.90;;;-141.84;74.18;19945.94;5054257;28;20249;-62
2022/08/30 00:12:26;;;;;;;5.97;5.10;;;16.40;99.90;;;-141.84;74.44;19956.09;5054726;28;20204;-63
2022/08/30 00:14:55;;;;;;;6.03;5.43;;;16.40;99.90;;;-141.84;74.35;19923.59;5053991;28;20216;-64
2022/08/30 00:17:23;;;;;;;7.13;5.25;;;16.40;99.90;;;-141.84;74.45;19915.47;5053956;28;20308;-63
2022/08/30 00:19:54;;;;;;;7.03;5.30;;;16.40;99.90;;;-141.84;75.05;19925.63;5054046;28;20229;-63
2022/08/30 00:22:22;;;;;;;6.53;5.40;;;16.30;99.90;;;-141.84;74.94;19887.00;5054193;28;20301;-64
2022/08/30 00:24:51;;;;;;;6.88;5.70;;;16.30;99.90;;;-141.84;74.80;19905.28;5053984;28;20308;-65
2022/08/30 00:27:19;;;;;;;6.07;5.30;;;16.30;99.90;;;-141.84;75.04;19856.53;5054291;28;20224;-64
2022/08/30 00:29:48;;;;;;;5.93;5.38;;;16.20;99.90;;;-141.84;75.33;19891.06;5053581;28;20320;-63
2022/08/30 00:32:16;;;;;;;6.53;5.55;;;16.20;99.90;;;-141.84;74.47;19905.28;5053754;28;20704;-63
2022/08/30 00:34:45;;;;;;;5.93;5.28;;;16.30;99.90;;;-141.84;73.56;19915.47;5054044;28;20312;-64
2022/08/30 00:37:15;;;;;;;8.23;6.10;;;16.40;99.90;;;-141.84;71.18;20000.81;5053859;28;20276;-64
2022/08/30 00:39:43;;;;;;;6.97;6.28;;;16.50;99.90;;;-141.84;70.20;20015.03;5053575;28;20296;-63
2022/08/30 00:42:13;;;;;;;7.30;5.72;;;16.70;99.90;;;-141.84;70.88;20002.84;5054033;28;20757;-63
2022/08/30 00:44:43;;;;;;;6.63;5.90;;;16.70;99.90;;;-141.84;71.64;19954.06;5053706;28;20228;-63
2022/08/30 00:47:12;;;;;;;6.68;5.47;;;16.60;99.90;;;-141.84;72.47;19887.00;5053256;28;20263;-63
2022/08/30 00:49:48;;;;;;;6.32;5.72;;;16.60;99.90;;;-141.84;72.69;19929.69;5053676;28;20233;-62
2022/08/30 00:52:19;;;;;;;6.60;5.53;;;16.50;99.90;;;-141.84;73.17;19909.34;5053509;28;20739;-63
2022/08/30 00:54:50;;;;;;;6.13;5.53;;;16.40;99.90;;;-141.84;73.94;19905.28;5053421;28;20233;-64
2022/08/30 00:57:19;;;;;;;6.72;5.32;;;16.30;99.90;;;-141.84;74.57;19793.50;5053832;28;20221;-63
2022/08/30 00:59:50;;;;;;;7.38;5.53;;;16.20;99.90;;;-141.84;75.10;19781.31;5053076;28;20328;-64
2022/08/30 01:02:22;;;;;;;7.00;6.30;;;16.20;99.90;;;-141.84;75.05;19809.78;5052957;28;20667;-63
2022/08/30 01:04:54;;;;;;;6.35;5.75;;;16.10;99.90;;;-141.84;75.10;19817.91;5053641;28;20244;-63
2022/08/30 01:07:24;;;;;;;6.22;5.63;;;16.10;99.90;;;-141.84;75.63;19769.13;5053241;28;20706;-64
2022/08/30 01:09:52;;;;;;;6.05;5.40;;;16.00;99.90;;;-141.84;76.14;19710.19;5053111;28;20244;-62
2022/08/30 01:12:22;;;;;;;6.70;5.70;;;15.90;99.90;;;-141.84;76.28;19720.34;5053795;28;20325;-64
2022/08/30 01:14:50;;;;;;;8.02;5.93;;;15.90;99.90;;;-141.84;76.51;19734.56;5053049;28;20331;-63
2022/08/30 01:17:20;;;;;;;6.63;5.93;;;15.90;99.90;;;-141.84;76.03;19706.13;5052729;28;20308;-64
2022/08/30 01:19:57;;;;;;;6.97;6.22;;;15.80;99.90;;;-141.84;75.86;19752.88;5053170;28;20784;-63
2022/08/30 01:22:36;;;;;;;7.85;6.22;;;15.90;99.90;;;-141.84;74.92;19779.28;5052927;28;20256;-63
2022/08/30 01:25:09;;;;;;;7.10;6.40;;;15.90;99.90;;;-141.84;74.72;19856.53;5052922;28;20225;-62
2022/08/30 01:27:42;;;;;;;9.77;6.38;;;16.00;99.90;;;-141.84;75.33;19761.00;5052812;28;20223;-63
2022/08/30 01:30:13;;;;;;;6.78;5.97;;;16.00;99.90;;;-141.84;75.66;19761.00;5053632;28;20186;-63
2022/08/30 01:32:47;;;;;;;6.88;5.95;;;15.90;99.90;;;-141.84;75.85;19726.44;5052430;28;20253;-63
2022/08/30 01:35:19;;;;;;;6.45;5.82;;;15.90;99.90;;;-141.84;76.44;19716.28;5052868;28;20221;-63
2022/08/30 01:37:48;;;;;;;8.75;6.18;;;15.90;99.90;;;-141.84;76.04;19702.06;5052633;28;20309;-63
2022/08/30 01:40:21;;;;;;;6.63;5.95;;;15.80;99.90;;;-141.84;75.90;19695.97;5052909;28;20225;-64
2022/08/30 01:42:49;;;;;;;7.28;5.43;;;15.90;99.90;;;-141.84;75.75;19695.97;5052986;28;20232;-63
2022/08/30 01:45:18;;;;;;;7.10;5.95;;;15.90;99.90;;;-141.84;75.49;19716.28;5053268;28;20263;-64
2022/08/30 01:47:46;;;;;;;8.20;6.45;;;15.90;99.90;;;-141.84;75.10;19716.28;5051949;28;20264;-62
2022/08/30 01:50:15;;;;;;;6.75;6.05;;;15.90;99.90;;;-141.84;76.08;19693.94;5052896;28;20308;-62
2022/08/30 01:52:43;;;;;;;9.10;6.38;;;15.90;99.90;;;-141.84;76.48;19624.84;5052408;28;20253;-64
2022/08/30 01:55:12;;;;;;;9.00;5.95;;;15.80;99.90;;;-141.84;76.44;19665.47;5052131;28;20676;-64
2022/08/30 01:57:42;;;;;;;10.63;5.95;;;15.80;99.90;;;-141.84;76.55;19675.63;5052485;28;20201;-63
2022/08/30 02:00:11;;;;;;;7.22;6.00;;;15.80;99.90;;;-141.84;76.25;19667.50;5052920;28;20197;-64
2022/08/30 02:02:40;;;;;;;9.45;5.90;;;15.80;99.90;;;-141.84;77.01;19643.13;5051864;28;20727;-64
2022/08/30 02:05:09;;;;;;;6.40;5.80;;;15.70;99.90;;;-141.84;77.60;19590.28;5052367;28;20373;-63
2022/08/30 02:07:37;;;;;;;6.90;5.80;;;15.70;99.90;;;-141.84;77.64;19563.88;5051981;28;20712;-64
2022/08/30 02:10:07;;;;;;;7.80;6.35;;;15.60;99.90;;;-141.84;77.61;19596.38;5051948;28;20312;-63
2022/08/30 02:12:35;;;;;;;6.85;6.15;;;15.50;99.90;;;-141.84;77.28;19600.44;5052098;28;20236;-63
2022/08/30 02:15:07;;;;;;;6.05;5.45;;;15.50;99.90;;;-141.84;78.00;19551.69;5052496;28;20272;-63
2022/08/30 02:17:36;;;;;;;6.28;5.68;;;15.50;99.90;;;-141.84;78.71;19574.03;5051973;28;20244;-64
2022/08/30 02:20:06;;;;;;;8.40;6.47;;;15.40;99.90;;;-141.84;78.54;19561.84;5051887;28;20252;-64
2022/08/30 02:22:35;;;;;;;9.75;6.78;;;15.40;99.90;;;-141.84;78.34;19545.56;5051668;28;20253;-63
2022/08/30 02:25:05;;;;;;;9.88;6.10;;;15.40;99.90;;;-141.84;78.01;19578.09;5051814;28;20363;-64
2022/08/30 02:27:38;;;;;;;6.82;6.20;;;15.40;99.90;;;-141.84;78.36;19533.38;5051977;28;20208;-64
2022/08/30 02:30:13;;;;;;;9.35;6.40;;;15.40;99.90;;;-141.84;78.73;19500.88;5052225;28;20319;-65
2022/08/30 02:32:41;;;;;;;7.30;6.60;;;15.40;99.90;;;-141.84;78.34;19494.78;5051747;28;20230;-62
2022/08/30 02:35:10;;;;;;;9.55;6.75;;;15.40;99.90;;;-141.84;78.62;19529.31;5051392;28;20275;-63
2022/08/30 02:37:38;;;;;;;7.63;6.82;;;15.30;99.90;;;-141.84;78.08;19531.34;5052342;28;20251;-63
2022/08/30 02:40:08;;;;;;;9.00;7.40;;;15.30;99.90;;;-141.84;78.08;19506.97;5051932;28;20308;-64
2022/08/30 02:42:37;;;;;;;7.50;6.38;;;15.40;99.90;;;-141.84;77.92;19523.22;5051706;28;20189;-64
2022/08/30 02:45:06;;;;;;;9.80;6.80;;;15.40;99.90;;;-141.84;78.28;19498.84;5051597;28;20590;-63
2022/08/30 02:47:36;;;;;;;6.65;5.95;;;15.30;99.90;;;-141.84;78.33;19541.50;5051482;28;20249;-63
2022/08/30 02:50:08;;;;;;;7.97;6.60;;;15.30;99.90;;;-141.84;78.37;19488.69;5051464;28;20283;-62
2022/08/30 02:52:37;;;;;;;8.50;6.25;;;15.30;99.90;;;-141.84;78.41;19511.03;5051947;28;20231;-64
2022/08/30 02:55:07;;;;;;;9.35;6.40;;;15.30;99.90;;;-141.84;79.17;19472.41;5051191;28;20244;-63
2022/08/30 02:57:36;;;;;;;7.32;6.63;;;15.20;99.90;;;-141.84;79.95;19423.66;5051652;28;20213;-62
2022/08/30 03:00:08;;;;;;;7.43;5.82;;;15.10;99.90;;;-141.84;80.49;19443.97;5051717;28;20197;-63
2022/08/30 03:02:37;;;;;;;7.63;6.85;;;15.10;99.90;;;-141.84;80.76;19427.72;5051470;28;20256;-65
2022/08/30 03:05:06;;;;;;;8.25;6.55;;;15.00;99.90;;;-141.84;80.74;19431.78;5051143;28;20888;-63
2022/08/30 03:07:34;;;;;;;10.15;6.38;;;15.00;99.90;;;-141.84;79.75;19443.97;5051096;28;20225;-64
2022/08/30 03:10:03;;;;;;;8.35;6.60;;;15.10;99.90;;;-141.84;80.34;19458.19;5050539;28;20771;-64
2022/08/30 03:12:32;;;;;;;9.68;6.95;;;15.00;99.90;;;-141.84;80.82;19387.06;5051065;28;20665;-64
2022/08/30 03:15:01;;;;;;;7.45;6.60;;;15.00;99.90;;;-141.84;80.71;19364.72;5051632;28;20201;-64
2022/08/30 03:17:30;;;;;;;8.93;6.80;;;15.00;99.90;;;-141.84;81.16;19376.91;5050673;28;20264;-64
2022/08/30 03:20:01;;;;;;;8.23;6.90;;;14.90;99.90;;;-141.84;80.67;19376.91;5050868;28;20229;-63
2022/08/30 03:22:29;;;;;;;11.25;7.15;;;14.90;99.90;;;-141.84;80.37;19370.81;5051060;28;20279;-63
2022/08/30 03:24:58;;;;;;;7.05;6.35;;;14.90;99.90;;;-141.84;80.60;19391.13;5050346;28;20641;-63
2022/08/30 03:27:29;;;;;;;9.00;6.68;;;14.90;99.90;;;-141.84;80.63;19322.03;5051026;28;20205;-64
2022/08/30 03:29:57;;;;;;;8.02;6.85;;;14.90;99.90;;;-141.84;81.12;19370.81;5051153;28;20213;-64
2022/08/30 03:32:26;;;;;;;8.43;6.82;;;14.90;99.90;;;-141.84;81.38;19328.13;5050792;28;20229;-63
2022/08/30 03:34:54;;;;;;;7.65;6.65;;;14.80;99.90;;;-141.84;81.06;19281.41;5050571;28;20304;-63
2022/08/30 03:37:24;;;;;;;7.68;6.97;;;14.80;99.90;;;-141.84;81.10;19330.16;5050755;28;20966;-63
2022/08/30 03:39:54;;;;;;;9.68;6.85;;;14.80;99.90;;;-141.84;80.45;19338.28;5049841;28;20312;-65
2022/08/30 03:42:24;;;;;;;10.55;6.65;;;14.90;99.90;;;-141.84;79.74;19344.41;5050936;28;20385;-63
2022/08/30 03:44:52;;;;;;;8.73;6.32;;;14.90;99.90;;;-141.84;79.30;19362.69;5050418;28;20278;-63
2022/08/30 03:47:21;;;;;;;8.18;7.22;;;14.90;99.90;;;-141.84;78.95;19352.53;5050134;28;20232;-63
2022/08/30 03:49:49;;;;;;;8.95;7.25;;;14.90;99.90;;;-141.84;78.17;19370.81;5050448;28;20646;-63
2022/08/30 03:52:17;;;;;;;7.25;6.53;;;15.00;99.90;;;-141.84;78.15;19397.22;5050315;28;20716;-63
2022/08/30 03:54:47;;;;;;;9.05;6.75;;;15.00;99.90;;;-141.84;79.15;19322.03;5049989;28;20651;-63
2022/08/30 03:57:16;;;;;;;7.00;6.28;;;14.90;99.90;;;-141.84;79.82;19346.44;5050871;28;20406;-62
2022/08/30 03:59:47;;;;;;;7.13;6.43;;;14.90;99.90;;;-141.84;80.23;19320.00;5050294;28;20259;-63
2022/08/30 04:02:15;;;;;;;9.32;7.05;;;14.80;99.90;;;-141.84;80.60;19297.66;5050308;28;20256;-63
2022/08/30 04:04:44;;;;;;;9.30;6.90;;;14.80;99.90;;;-141.84;80.13;19313.91;5050449;28;20263;-63
2022/08/30 04:07:12;;;;;;;8.35;7.05;;;14.80;99.90;;;-141.84;79.93;19305.78;5050075;28;20249;-64
2022/08/30 04:09:40;;;;;;;8.30;6.90;;;14.80;99.90;;;-141.84;80.39;19232.63;5050418;28;20256;-63
2022/08/30 04:12:10;;;;;;;9.13;6.95;;;14.70;99.90;;;-141.84;80.72;19271.25;5050717;28;20202;-63
2022/08/30 04:14:38;;;;;;;8.23;6.93;;;14.70;99.90;;;-141.84;80.55;19269.22;5050446;28;20257;-63
2022/08/30 04:17:09;;;;;;;10.30;7.32;;;14.70;99.90;;;-141.84;80.80;19242.78;5049846;28;20236;-62
2022/08/30 04:19:37;;;;;;;8.65;6.60;;;14.70;99.90;;;-141.84;81.21;19250.91;5050085;28;20404;-63
2022/08/30 04:22:05;;;;;;;8.90;7.40;;;14.70;99.90;;;-141.84;81.50;19267.16;5049923;28;20221;-64
2022/08/30 04:24:34;;;;;;;11.60;7.13;;;14.70;99.90;;;-141.84;81.54;19246.84;5050090;28;20286;-63
2022/08/30 04:27:02;;;;;;;7.40;6.70;;;14.70;99.90;;;-141.84;81.38;19232.63;5050309;28;20263;-63
2022/08/30 04:29:31;;;;;;;8.70;7.32;;;14.70;99.90;;;-141.84;81.49;19224.50;5049835;28;20261;-63
2022/08/30 04:32:00;;;;;;;7.70;6.88;;;14.70;99.90;;;-141.84;81.90;19263.09;5049589;28;20324;-63
2022/08/30 04:34:28;;;;;;;10.07;7.05;;;14.70;99.90;;;-141.84;81.64;19259.03;5050139;28;20245;-62
2022/08/30 04:36:56;;;;;;;8.35;6.82;;;14.70;99.90;;;-141.84;81.61;19214.34;5050004;28;20287;-63
2022/08/30 04:39:26;;;;;;;9.57;7.15;;;14.70;99.90;;;-141.84;82.26;19218.41;5049970;28;20736;-62
2022/08/30 04:41:54;;;;;;;7.68;6.75;;;14.70;99.90;;;-141.84;82.24;19206.22;5050007;28;20217;-63
2022/08/30 04:44:26;;;;;;;8.75;7.10;;;14.70;99.90;;;-141.84;81.91;19212.31;5049677;28;20267;-64
2022/08/30 04:46:55;;;;;;;8.48;7.00;;;14.80;99.90;;;-141.84;81.74;19198.09;5049738;28;20225;-63
2022/08/30 04:49:24;;;;;;;8.93;7.15;;;14.80;99.90;;;-141.84;81.75;19230.59;5049818;28;20312;-63
2022/08/30 04:51:52;;;;;;;11.73;7.18;;;14.80;99.90;;;-141.84;81.99;19204.19;5051381;28;20299;-62
2022/08/30 04:54:20;;;;;;;7.85;7.05;;;14.80;99.90;;;-141.84;81.95;19179.78;5053948;28;20248;-63
2022/08/30 04:56:48;;;;;;;9.93;6.97;;;14.80;99.90;;;-141.84;81.98;19183.84;5053487;28;20309;-62
2022/08/30 04:59:16;;;;;;;8.30;6.93;;;14.90;99.90;;;-141.84;81.57;19183.84;5053295;28;20535;-63
2022/08/30 05:01:45;;;;;;;9.23;7.93;;;14.90;99.90;;;-141.84;80.91;19214.34;5053481;28;20231;-62
2022/08/30 05:04:15;;;;;;;10.25;7.07;;;15.00;99.90;;;-141.84;80.43;19204.19;5053254;28;20656;-63
2022/08/30 05:06:44;;;;;;;8.77;6.97;;;15.00;99.90;;;-141.84;80.46;19212.31;5053161;28;20190;-63
2022/08/30 05:09:12;;;;;;;10.38;7.13;;;15.10;99.90;;;-141.84;80.36;19189.97;5053915;28;20281;-63
2022/08/30 05:11:42;;;;;;;8.25;7.10;;;15.10;99.90;;;-141.84;80.29;19204.19;5053147;28;20259;-64
2022/08/30 05:14:10;;;;;;;9.90;8.07;;;15.20;99.90;;;-141.84;79.68;19234.66;5052667;28;20225;-62
2022/08/30 05:16:40;;;;;;;9.80;7.90;;;15.20;99.90;;;-141.84;79.58;19220.44;5052782;28;20680;-62
2022/08/30 05:19:08;;;;;;;11.20;8.77;;;15.20;99.90;;;-141.84;78.82;19265.13;5052639;28;20225;-62
2022/08/30 05:21:40;;;;;;;10.25;8.60;;;15.30;99.90;;;-141.84;78.38;19279.38;5052691;28;20666;-63
2022/08/30 05:24:09;;;;;;;10.00;8.57;;;15.30;99.90;;;-141.84;78.36;19283.44;5053337;28;20720;-63
2022/08/30 05:26:39;;;;;;;9.88;8.75;;;15.40;99.90;;;-141.84;77.97;19275.31;5053020;28;20237;-63
2022/08/30 05:29:07;;;;;;;10.60;8.45;;;15.60;99.90;;;-141.84;77.53;19299.69;5052843;28;20634;-62
2022/08/30 05:31:36;;;;;;;10.07;9.05;;;15.70;99.90;;;-141.84;77.00;19370.81;5052532;28;20248;-63
2022/08/30 05:34:05;;;;;;;10.00;9.00;;;15.90;99.90;;;-141.84;76.49;19383.00;5052269;28;20660;-62
2022/08/30 05:36:36;;;;;;;14.35;9.65;;;16.00;99.90;;;-141.84;75.96;19370.81;5052836;28;20225;-62
2022/08/30 05:39:08;;;;;;;10.80;9.23;;;16.20;99.90;;;-141.84;74.20;19443.97;5053090;28;20715;-63
2022/08/30 05:41:38;;;;;;;12.32;8.88;;;16.40;99.90;;;-141.84;73.29;19478.50;5052349;28;20304;-64
2022/08/30 05:44:09;;;;;;;12.82;9.38;;;16.50;99.90;;;-141.84;72.36;19555.75;5052877;28;20255;-63
2022/08/30 08:41:36;;;;;;;11.60;7.57;;;20.20;99.90;;;-141.84;59.46;20763.06;5050303;28;20255;-63
2022/08/30 08:44:15;;;;;;;9.60;7.80;;;20.20;99.90;;;-141.84;60.34;20708.19;5046662;28;20319;-63
2022/08/30 08:46:57;;;;;;;11.15;7.65;;;20.10;99.90;;;-141.84;59.04;20791.53;5054535;28;20308;-63
2022/08/30 08:49:25;;;;;;;9.35;7.25;;;20.30;99.90;;;-141.84;58.25;20817.94;5054477;28;20236;-63
2022/08/30 08:54:48;;;;;;;10.18;6.80;;;20.50;99.90;;;-141.84;58.03;20880.97;5054514;28;20538;-60
2022/08/30 08:57:18;;;;;;;9.98;6.22;;;20.70;99.90;;;-141.84;55.93;20976.53;5054894;28;20192;-60
2022/08/30 08:59:53;;;;;;;5.85;4.30;;;20.70;99.90;;;-141.84;55.13;21011.09;5054080;28;20224;-59
2022/08/30 09:02:27;;;;;;;9.40;6.15;;;20.70;99.90;;;-141.84;55.22;21088.34;5054217;28;20256;-59
2022/08/30 09:05:00;;;;;;;7.75;5.32;;;20.90;99.90;;;-141.84;56.27;21031.41;5053821;28;20225;-59
2022/08/30 09:07:36;;;;;;;7.10;5.63;;;20.90;99.90;;;-141.84;56.09;21043.59;5054131;28;20225;-59
2022/08/30 09:10:07;;;;;;;7.93;4.88;;;20.90;99.90;;;-141.84;55.47;21100.53;5053934;28;20216;-59
2022/08/30 09:12:37;;;;;;;5.38;4.78;;;21.00;99.90;;;-141.84;55.31;21061.91;5053716;28;20216;-60
2022/08/30 09:15:15;;;;;;;5.57;4.57;;;21.10;99.90;;;-141.84;53.72;21139.16;5054439;28;20205;-60
2022/08/30 09:17:55;;;;;;;6.85;4.82;;;21.10;99.90;;;-141.84;53.44;21151.34;5053870;28;20227;-60
2022/08/30 09:20:29;;;;;;;5.32;4.03;;;21.20;99.90;;;-141.84;53.00;21200.16;5043826;28;20626;-60
2022/08/30 09:22:59;;;;;;;5.53;4.32;;;21.30;99.90;;;-141.84;53.24;21192.03;5033876;28;20226;-59
2022/08/30 09:25:31;;;;;;;7.15;4.68;;;21.30;99.90;;;-141.84;52.89;21250.97;5033690;28;20268;-59
2022/08/30 09:28:13;;;;;;;5.45;4.05;;;21.40;99.90;;;-141.84;52.50;21234.72;5033431;28;20763;-59
2022/08/30 09:31:01;;;;;;;6.50;3.78;;;21.50;99.90;;;-141.84;52.44;21314.00;5033461;28;20289;-61
2022/08/30 09:33:31;;;;;;;4.63;3.85;;;21.60;99.90;;;-141.84;51.92;21352.63;5033905;28;20209;-60
2022/08/30 09:36:21;;;;;;;7.45;4.22;;;21.90;99.90;;;-141.84;50.76;21446.16;5034174;28;20653;-61
2022/08/30 09:39:00;;;;;;;6.43;5.03;;;22.10;99.90;;;-141.84;50.93;21458.38;5032325;28;20235;-60
2022/08/30 09:41:38;;;;;;;8.95;5.43;;;22.30;99.90;;;-141.84;50.86;21549.84;5033216;28;20222;-60
2022/08/30 09:44:15;;;;;;;6.97;6.07;;;22.50;99.90;;;-141.84;51.56;21480.72;5050894;28;20304;-59
2022/08/30 09:46:48;;;;;;;8.40;6.38;;;22.50;99.90;;;-141.84;52.16;21395.34;5053249;28;20239;-60
2022/08/30 09:49:35;;;;;;;6.55;4.80;;;22.30;99.90;;;-141.84;52.99;21356.69;5053508;28;20245;-59
2022/08/30 09:52:34;;;;;;;7.60;5.90;;;22.10;99.90;;;-141.84;52.93;21324.19;5052637;28;20267;-59
2022/08/30 09:55:20;;;;;;;6.90;5.47;;;21.90;99.90;;;-141.84;53.46;21309.94;5053360;28;20231;-60
2022/08/30 09:58:05;;;;;;;7.05;5.85;;;21.70;99.90;;;-141.84;54.48;21232.69;5052811;28;20762;-59
2022/08/30 10:00:44;;;;;;;9.48;6.78;;;21.50;99.90;;;-141.84;54.02;21271.31;5053033;28;20280;-59
2022/08/30 10:03:26;;;;;;;11.63;6.53;;;21.60;99.90;;;-141.84;54.08;21271.31;5053561;28;20186;-60
2022/08/30 10:06:23;;;;;;;7.10;5.80;;;21.60;99.90;;;-141.84;54.19;21281.47;5053307;28;20266;-60
2022/08/30 10:09:12;;;;;;;6.68;5.70;;;21.60;99.90;;;-141.84;53.25;21377.03;5053476;28;20225;-60
2022/08/30 10:11:49;;;;;;;9.18;6.43;;;21.90;99.90;;;-141.84;52.01;21421.75;5052717;28;20309;-59
2022/08/30 10:14:56;;;;;;;6.68;5.20;;;22.00;99.90;;;-141.84;52.47;21427.88;5053039;28;20221;-60
2022/08/30 10:17:48;;;;;;;7.95;5.07;;;22.20;99.90;;;-141.84;51.68;21509.19;5052877;28;20232;-60
2022/08/30 10:20:26;;;;;;;6.28;5.40;;;22.40;99.90;;;-141.84;50.45;21602.72;5052951;28;20487;-60
2022/08/30 10:23:05;;;;;;;8.05;5.78;;;22.60;99.90;;;-141.84;49.91;21606.78;5052675;28;20322;-60
2022/08/30 10:25:42;;;;;;;5.53;4.75;;;22.80;99.90;;;-141.84;50.07;21584.44;5052758;28;20771;-60
2022/08/30 10:28:20;;;;;;;7.57;5.25;;;22.80;99.90;;;-141.84;49.73;21614.94;5052356;28;20335;-60
2022/08/30 10:30:59;;;;;;;6.65;5.00;;;22.90;99.90;;;-141.84;48.80;21724.72;5052363;28;20276;-60
2022/08/30 10:33:38;;;;;;;5.30;4.65;;;23.00;99.90;;;-141.84;48.31;21738.97;5053071;28;20189;-61
2022/08/30 10:36:13;;;;;;;6.28;4.78;;;23.20;99.90;;;-141.84;49.05;21677.97;5052764;28;20205;-60
2022/08/30 10:38:47;;;;;;;6.82;4.80;;;23.10;99.90;;;-141.84;48.20;21694.22;5052074;28;20248;-60
2022/08/30 10:41:33;;;;;;;5.35;4.65;;;23.20;99.90;;;-141.84;47.46;21781.66;5052442;28;20230;-60
2022/08/30 10:44:15;;;;;;;9.88;5.03;;;23.20;99.90;;;-141.84;47.63;21706.44;5052028;28;20723;-59
2022/08/30 10:47:01;;;;;;;5.80;4.05;;;23.20;99.90;;;-141.84;47.79;21749.13;5052346;28;20232;-60
2022/08/30 10:49:39;;;;;;;5.53;4.30;;;23.10;99.90;;;-141.84;47.74;21741.00;5051827;28;20319;-59
2022/08/30 10:52:23;;;;;;;4.40;3.97;;;23.10;99.90;;;-141.84;46.78;21802.00;5052229;28;20231;-60
2022/08/30 10:54:59;;;;;;;5.38;4.50;;;23.20;99.90;;;-141.84;46.58;21793.84;5052442;28;20252;-58
2022/08/30 10:57:27;;;;;;;5.25;4.15;;;23.20;99.90;;;-141.84;45.78;21836.56;5052380;28;20288;-60
2022/08/30 11:00:03;;;;;;;5.20;4.15;;;23.30;99.90;;;-141.84;45.85;21865.03;5052415;28;20216;-61
2022/08/30 11:03:24;;;;;;;5.72;4.30;;;23.40;99.90;;;-141.84;46.24;21897.56;5051834;28;20308;-59
2022/08/30 11:06:18;;;;;;;5.60;3.60;;;23.50;99.90;;;-141.84;46.42;21928.06;5051989;28;20233;-61
2022/08/30 11:09:31;;;;;;;4.03;3.70;;;23.60;99.90;;;-141.84;45.47;21995.16;5052133;28;20628;-60
2022/08/30 11:12:28;;;;;;;4.45;4.00;;;23.70;99.90;;;-141.84;45.79;21993.13;5042263;28;20233;-59
2022/08/30 11:14:57;;;;;;;6.47;4.50;;;23.80;99.90;;;-141.84;46.05;21944.34;5052451;28;20224;-59
2022/08/30 11:17:46;;;;;;;5.15;3.70;;;23.90;99.90;;;-141.84;46.12;21974.84;5051720;28;20233;-60
2022/08/30 11:20:35;;;;;;;6.88;4.00;;;24.00;99.90;;;-141.84;45.61;22025.66;5051808;28;20300;-60
2022/08/30 11:23:32;;;;;;;5.00;3.70;;;24.00;99.90;;;-141.84;43.92;22206.66;5051621;28;20304;-60
2022/08/30 11:26:05;;;;;;;4.38;3.90;;;24.30;99.90;;;-141.84;43.06;22241.22;5042881;28;20225;-57
2022/08/30 11:29:05;;;;;;;7.18;3.95;;;24.60;99.90;;;-141.84;43.53;22153.78;5051388;28;20290;-60
2022/08/30 11:31:41;;;;;;;5.38;3.58;;;24.50;99.90;;;-141.84;44.84;22021.59;5043310;28;20229;-60
2022/08/30 11:34:12;;;;;;;5.18;4.35;;;24.20;99.90;;;-141.84;45.02;21964.66;5051258;28;20223;-59
2022/08/30 11:37:08;;;;;;;5.63;4.28;;;23.90;99.90;;;-141.84;45.59;22023.63;5051596;28;20202;-59
2022/08/30 11:39:55;;;;;;;6.13;4.72;;;23.90;99.90;;;-141.84;45.95;21950.44;5051154;28;20194;-59
2022/08/30 11:42:38;;;;;;;5.55;4.03;;;23.70;99.90;;;-141.84;46.45;21997.19;5051243;28;20275;-59
2022/08/30 11:45:46;;;;;;;4.75;4.35;;;23.80;99.90;;;-141.84;46.07;21928.06;5051449;28;20278;-61
2022/08/30 11:48:44;;;;;;;4.95;4.05;;;23.80;99.90;;;-141.84;45.69;21960.59;5051439;28;20237;-59
2022/08/30 11:51:56;;;;;;;4.57;4.13;;;23.80;99.90;;;-141.84;46.11;21897.56;5051598;28;20580;-59
2022/08/30 11:55:07;;;;;;;7.43;4.25;;;23.60;99.90;;;-141.84;45.62;21887.41;5048873;28;20229;-59
2022/08/30 11:57:49;;;;;;;4.90;3.72;;;23.60;99.90;;;-141.84;46.54;21844.69;5050867;28;20208;-59
2022/08/30 12:00:33;;;;;;;3.85;3.50;;;23.40;99.90;;;-141.84;46.76;21810.13;5051398;28;20558;-60
2022/08/30 12:03:05;;;;;;;6.32;4.10;;;23.20;99.90;;;-141.84;47.37;21771.50;5051096;28;20202;-60
2022/08/30 12:05:59;;;;;;;3.83;3.53;;;23.10;99.90;;;-141.84;46.35;21875.19;5050979;28;20247;-59
2022/08/30 12:08:53;;;;;;;3.92;3.63;;;23.30;99.90;;;-141.84;46.05;21950.44;5050887;28;20235;-60
2022/08/30 12:11:58;;;;;;;5.28;3.50;;;23.50;99.90;;;-141.84;44.04;22011.44;5050960;28;20300;-59
2022/08/30 12:14:50;;;;;;;5.10;4.70;;;23.80;99.90;;;-141.84;48.13;21913.84;5027105;28;20221;-60
2022/08/30 12:20:21;;;;;;;6.18;4.75;;;23.70;99.90;;;-141.84;49.61;21828.44;5030875;28;20237;-60
2022/08/30 12:22:51;;;;;;;5.13;4.72;;;23.50;99.90;;;-141.84;50.59;21686.09;5031116;28;20421;-59
2022/08/30 12:25:27;;;;;;;5.38;4.88;;;23.20;99.90;;;-141.84;51.26;21675.94;5031118;28;20221;-60
2022/08/30 12:28:14;;;;;;;7.22;4.95;;;23.00;99.90;;;-141.84;51.51;21645.44;5031129;28;20720;-61
2022/08/30 12:30:44;;;;;;;5.50;4.60;;;22.80;99.90;;;-141.84;51.76;21667.78;5031369;28;20213;-61
2022/08/30 12:33:25;;;;;;;6.45;4.45;;;22.90;99.90;;;-141.84;49.73;21779.63;5031629;28;20202;-60
2022/08/30 12:35:58;;;;;;;5.53;4.43;;;23.10;99.90;;;-141.84;48.60;21932.13;5031509;28;20280;-61
2022/08/30 12:38:28;;;;;;;5.07;4.57;;;23.50;99.90;;;-141.84;48.33;21895.53;5030884;28;20585;-59
2022/08/30 12:41:01;;;;;;;5.43;4.35;;;23.70;99.90;;;-141.84;46.91;21997.19;5031200;28;20245;-58
2022/08/30 12:43:38;;;;;;;4.60;4.20;;;23.90;99.90;;;-141.84;47.14;21962.63;5043126;28;20243;-59
2022/08/30 12:46:14;;;;;;;6.43;4.45;;;23.90;99.90;;;-141.84;47.19;21944.34;5051061;28;20646;-60
2022/08/30 12:48:45;;;;;;;5.05;4.40;;;23.90;99.90;;;-141.84;46.91;21956.53;5051107;28;20200;-59
2022/08/30 12:51:34;;;;;;;4.80;4.30;;;23.90;99.90;;;-141.84;47.53;21936.19;5051398;28;20732;-59
2022/08/30 12:54:18;;;;;;;5.13;4.63;;;23.70;99.90;;;-141.84;47.43;21944.34;5051107;28;20577;-59
2022/08/30 12:56:59;;;;;;;4.95;4.55;;;23.80;99.90;;;-141.84;48.08;21956.53;5050790;28;20225;-59
2022/08/30 12:59:53;;;;;;;6.63;4.85;;;23.80;99.90;;;-141.84;48.82;21885.38;5050491;28;20697;-60
2022/08/30 13:02:42;;;;;;;6.97;5.20;;;23.80;99.90;;;-141.84;49.67;21826.41;5051038;28;20233;-60
2022/08/30 13:05:46;;;;;;;4.95;4.53;;;23.60;99.90;;;-141.84;49.02;21848.75;5050776;28;20232;-60
2022/08/30 13:08:25;;;;;;;6.20;4.65;;;23.60;99.90;;;-141.84;49.58;21838.59;5030658;28;20237;-59
2022/08/30 13:10:58;;;;;;;5.07;4.68;;;23.50;99.90;;;-141.84;48.68;21846.72;5050848;28;20661;-59
2022/08/30 13:13:38;;;;;;;5.53;4.60;;;23.50;99.90;;;-141.84;49.35;21830.47;5052962;28;20240;-60
2022/08/30 13:16:21;;;;;;;5.35;4.85;;;23.50;99.90;;;-141.84;49.41;21822.31;5054450;28;20765;-58
2022/08/30 13:18:51;;;;;;;5.35;4.95;;;23.50;99.90;;;-141.84;49.57;21795.88;5054576;28;22790;-60
2022/08/30 13:21:29;;;;;;;5.47;5.07;;;23.30;99.90;;;-141.84;49.35;21773.53;5054810;28;20206;-60
2022/08/30 13:24:00;;;;;;;5.30;4.78;;;23.30;99.90;;;-141.84;49.83;21741.00;5054122;28;20217;-59
2022/08/30 13:26:33;;;;;;;5.35;4.90;;;23.10;99.90;;;-141.84;49.95;21755.22;5054077;28;20228;-58
2022/08/30 13:29:05;;;;;;;5.53;5.03;;;23.10;99.90;;;-141.84;50.00;21777.59;5053947;28;20248;-59
2022/08/30 13:31:38;;;;;;;5.47;4.70;;;23.10;99.90;;;-141.84;49.45;21787.75;5054026;28;20225;-59
2022/08/30 13:34:07;;;;;;;5.20;4.80;;;23.20;99.90;;;-141.84;49.50;21745.06;5054129;28;20235;-60
2022/08/30 13:36:45;;;;;;;5.30;4.63;;;23.20;99.90;;;-141.84;49.14;21802.00;5054010;28;20197;-61
2022/08/30 13:39:13;;;;;;;5.60;5.00;;;23.20;99.90;;;-141.84;48.83;21826.41;5054458;28;20177;-59